Portada
METAR-TAF:

METAR-TAF

Aeroports :

Cairo Regional Airport

Cairo, Illinois, Estats Units d'Amèrica

latitud: 37-03-52N, longitud: 089-13-10W, altitud: 98 m

Observació

L'informe es va fer fa 23 minuts, a les 10:35 UTC
Vent 9 kt del Nord
Temperatura -9°C
Humitat 73%
Pressió 1034 hPa
Visibilitat: 16.1 km
Cel clar

METAR: KCIR 121035Z AUTO 35009KT 10SM CLR M09/M13 A3054 RMK AO2 T10871135

Hora: 04:58 (10:58 UTC)


TAF: manca

Observacions i pronòstics meteorològics de més de 4000 aeroports (METAR i TAF).

Les estacions disponibles són els punts grocs i vermells al mapa.

Posi el ratolí al punt desitjat per veure el nom de l'estació.

Feu clic per veure les observacions i els pronòstics meteorològics.

Per canviar el mapa: feu clic els botons verds amb una creu de color negre per apropar; al botó verd amb un guió per allunyar la imatge; o en les fletxes verdes per a mapes adjacents.


METAR-TAF: